createdAt,value
2023-01-28T00:00:36.597Z,2.10
2023-01-28T00:03:03.118Z,1.92
2023-01-28T00:05:30.031Z,1.80
2023-01-28T00:07:57.627Z,1.83
2023-01-28T00:10:24.001Z,1.90
2023-01-28T00:12:50.889Z,1.83
2023-01-28T00:15:17.318Z,1.80
2023-01-28T00:17:43.729Z,2.08
2023-01-28T00:20:12.501Z,2.20
2023-01-28T00:22:38.894Z,2.22
2023-01-28T00:25:05.353Z,1.75
2023-01-28T00:27:31.693Z,2.13
2023-01-28T00:29:58.047Z,1.98
2023-01-28T00:32:24.401Z,1.70
2023-01-28T00:34:50.783Z,1.70
2023-01-28T00:37:17.148Z,2.00
2023-01-28T00:39:43.521Z,1.90
2023-01-28T00:42:09.884Z,2.03
2023-01-28T00:44:36.517Z,1.83
2023-01-28T00:47:02.922Z,2.08
2023-01-28T00:49:29.440Z,2.00
2023-01-28T00:51:55.813Z,2.05
2023-01-28T00:54:22.183Z,1.73
2023-01-28T00:56:48.526Z,2.00
2023-01-28T00:59:15.297Z,2.00
2023-01-28T01:01:42.022Z,2.08
2023-01-28T01:04:08.443Z,1.95
2023-01-28T01:06:38.182Z,2.20
2023-01-28T01:09:08.511Z,2.30
2023-01-28T01:11:35.211Z,2.08
2023-01-28T01:14:03.888Z,2.38
2023-01-28T01:16:36.124Z,2.00
2023-01-28T01:19:03.158Z,2.08
2023-01-28T01:21:30.167Z,1.90
2023-01-28T01:23:57.041Z,2.28
2023-01-28T01:26:24.042Z,1.98
2023-01-28T01:28:52.117Z,1.85
2023-01-28T01:31:21.537Z,2.03
2023-01-28T01:33:51.419Z,1.90
2023-01-28T01:36:20.187Z,1.90
2023-01-28T01:38:46.559Z,1.92
2023-01-28T01:41:24.376Z,2.15
2023-01-28T01:43:59.446Z,2.35
2023-01-28T01:46:33.164Z,2.20
2023-01-28T01:49:08.861Z,2.13
2023-01-28T01:51:37.299Z,1.92
2023-01-28T01:54:04.793Z,1.92
2023-01-28T01:56:38.770Z,1.90
2023-01-28T01:59:06.653Z,1.67
2023-01-28T02:01:33.065Z,1.80
2023-01-28T02:04:06.021Z,1.77
2023-01-28T02:06:33.237Z,2.00
2023-01-28T02:08:59.721Z,1.90
2023-01-28T02:11:30.255Z,1.57
2023-01-28T02:13:59.987Z,1.58
2023-01-28T02:16:27.039Z,1.48
2023-01-28T02:18:53.467Z,1.42
2023-01-28T02:21:57.722Z,1.50
2023-01-28T02:24:42.805Z,1.67
2023-01-28T02:27:20.459Z,1.83
2023-01-28T02:29:56.220Z,1.70
2023-01-28T02:32:36.627Z,1.75
2023-01-28T02:35:18.135Z,1.83
2023-01-28T02:37:53.585Z,1.90
2023-01-28T02:40:29.738Z,1.60
2023-01-28T02:42:57.421Z,1.70
2023-01-28T02:45:52.621Z,1.63
2023-01-28T02:48:23.136Z,1.60
2023-01-28T02:51:00.783Z,1.40
2023-01-28T02:53:45.132Z,1.55
2023-01-28T02:56:30.472Z,1.60
2023-01-28T02:59:26.176Z,1.30
2023-01-28T03:01:59.737Z,1.30
2023-01-28T03:04:30.376Z,1.50
2023-01-28T03:07:04.132Z,1.30
2023-01-28T03:09:31.152Z,1.27
2023-01-28T03:12:31.084Z,1.30
2023-01-28T03:15:32.630Z,1.00
2023-01-28T03:18:26.182Z,1.00
2023-01-28T03:21:28.253Z,1.10
2023-01-28T03:24:18.169Z,0.85
2023-01-28T03:27:15.550Z,1.20
2023-01-28T03:30:03.205Z,0.98
2023-01-28T03:32:48.998Z,1.00
2023-01-28T03:35:36.368Z,0.90
2023-01-28T03:38:18.667Z,0.90
2023-01-28T03:41:15.186Z,1.13
2023-01-28T03:43:42.711Z,1.20
2023-01-28T03:46:09.118Z,1.30
2023-01-28T03:48:35.515Z,1.10
2023-01-28T03:51:01.873Z,1.20
2023-01-28T03:53:28.421Z,1.27
2023-01-28T03:55:56.743Z,1.15
2023-01-28T03:58:46.312Z,1.40
2023-01-28T04:01:13.698Z,1.30
2023-01-28T04:03:40.101Z,1.10
2023-01-28T04:06:09.510Z,1.20
2023-01-28T04:08:35.979Z,1.20
2023-01-28T04:11:15.621Z,1.23
2023-01-28T04:13:43.225Z,1.40
2023-01-28T04:16:10.670Z,1.25
2023-01-28T04:18:37.152Z,1.33
2023-01-28T04:21:03.593Z,1.08
2023-01-28T04:23:30.397Z,1.30
2023-01-28T04:25:56.991Z,1.15
2023-01-28T04:28:23.535Z,0.98
2023-01-28T04:30:49.933Z,1.15
2023-01-28T04:33:16.362Z,1.30
2023-01-28T04:35:42.733Z,1.00
2023-01-28T04:38:09.205Z,1.27
2023-01-28T04:40:35.581Z,1.27
2023-01-28T04:43:02.323Z,1.40
2023-01-28T04:45:29.255Z,1.35
2023-01-28T04:47:55.657Z,1.40
2023-01-28T04:50:22.023Z,1.50
2023-01-28T04:52:48.376Z,1.30
2023-01-28T04:55:15.054Z,1.40
2023-01-28T04:57:41.668Z,1.60
2023-01-28T05:00:08.587Z,1.47
2023-01-28T05:02:34.967Z,1.40
2023-01-28T05:05:04.718Z,1.50
2023-01-28T05:07:31.071Z,1.60
2023-01-28T05:09:57.440Z,1.48
2023-01-28T05:12:23.865Z,1.23
2023-01-28T05:14:50.236Z,1.23
2023-01-28T05:17:16.646Z,1.50
2023-01-28T05:19:43.612Z,1.23
2023-01-28T05:22:09.977Z,1.73
2023-01-28T05:24:36.447Z,2.27
2023-01-28T05:27:02.813Z,2.10
2023-01-28T05:29:29.202Z,1.58
2023-01-28T05:31:55.577Z,1.50
2023-01-28T05:34:21.934Z,1.25
2023-01-28T05:36:48.289Z,1.20
2023-01-28T05:39:14.648Z,1.33
2023-01-28T05:41:40.989Z,1.13
2023-01-28T05:44:07.358Z,1.30
2023-01-28T05:46:34.581Z,1.50
2023-01-28T05:49:00.924Z,1.00
2023-01-28T05:51:27.281Z,1.77
2023-01-28T05:53:53.729Z,1.17
2023-01-28T05:56:20.093Z,1.50
2023-01-28T05:58:46.435Z,1.50
2023-01-28T06:01:12.816Z,1.97
2023-01-28T06:03:39.193Z,1.83
2023-01-28T06:06:05.828Z,1.80
2023-01-28T06:08:32.163Z,1.80
2023-01-28T06:10:58.512Z,2.03
2023-01-28T06:13:24.885Z,1.80
2023-01-28T06:15:51.391Z,2.08
2023-01-28T06:18:17.823Z,2.63
2023-01-28T06:20:44.192Z,2.13
2023-01-28T06:23:10.623Z,2.28
2023-01-28T06:25:37.824Z,1.73
2023-01-28T06:28:04.412Z,2.00
2023-01-28T06:30:30.803Z,2.33
2023-01-28T06:32:57.437Z,1.95
2023-01-28T06:35:24.122Z,2.05
2023-01-28T06:37:50.557Z,2.00
2023-01-28T06:40:17.576Z,2.20
2023-01-28T06:42:44.256Z,2.42
2023-01-28T06:45:11.162Z,2.20
2023-01-28T06:47:40.567Z,1.90
2023-01-28T06:50:07.336Z,2.20
2023-01-28T06:52:33.688Z,2.58
2023-01-28T06:55:01.549Z,2.10
2023-01-28T06:57:27.924Z,1.90
2023-01-28T06:59:54.279Z,2.05
2023-01-28T07:02:20.648Z,1.50
2023-01-28T07:04:47.003Z,1.52
2023-01-28T07:07:13.396Z,1.73
2023-01-28T07:09:39.739Z,1.95
2023-01-28T07:12:06.237Z,1.80
2023-01-28T07:14:32.602Z,1.67
2023-01-28T07:16:59.078Z,1.88
2023-01-28T07:19:25.469Z,1.88
2023-01-28T07:21:51.834Z,1.80
2023-01-28T07:24:18.436Z,1.95
2023-01-28T07:26:44.836Z,1.50
2023-01-28T07:29:11.310Z,1.63
2023-01-28T07:31:37.810Z,1.55
2023-01-28T07:34:04.230Z,1.38
2023-01-28T07:36:30.585Z,1.45
2023-01-28T07:38:56.925Z,1.50
2023-01-28T07:41:23.340Z,1.60
2023-01-28T07:43:49.698Z,1.30
2023-01-28T07:46:16.192Z,1.73
2023-01-28T07:48:42.545Z,1.30
2023-01-28T07:51:08.912Z,1.90
2023-01-28T07:53:35.277Z,1.70
2023-01-28T07:56:02.589Z,1.20
2023-01-28T07:58:28.984Z,1.48
2023-01-28T08:00:59.140Z,1.48
2023-01-28T08:03:25.817Z,1.30
2023-01-28T08:05:54.869Z,1.20
2023-01-28T08:08:25.501Z,1.10
2023-01-28T08:10:52.527Z,1.10
2023-01-28T08:13:19.418Z,1.10
2023-01-28T08:15:46.629Z,1.10
2023-01-28T08:18:15.701Z,1.10
2023-01-28T08:20:44.533Z,0.90
2023-01-28T08:23:19.077Z,1.40
2023-01-28T08:25:46.812Z,0.90
2023-01-28T08:28:14.228Z,1.10
2023-01-28T08:30:41.093Z,1.05
2023-01-28T08:33:09.317Z,1.20
2023-01-28T08:35:36.727Z,1.27
2023-01-28T08:38:04.944Z,1.40
2023-01-28T08:40:31.695Z,0.97
2023-01-28T08:42:58.200Z,1.02
2023-01-28T08:45:28.450Z,1.05
2023-01-28T08:47:57.310Z,1.25
2023-01-28T08:50:25.780Z,1.30
2023-01-28T08:53:04.955Z,1.40
2023-01-28T08:55:31.555Z,1.00
2023-01-28T08:58:01.563Z,1.02
2023-01-28T09:00:27.923Z,1.20
2023-01-28T09:02:54.320Z,1.10
2023-01-28T09:05:21.503Z,1.10
2023-01-28T09:07:48.686Z,1.10
2023-01-28T09:10:16.627Z,1.30
2023-01-28T09:12:43.934Z,0.95
2023-01-28T09:15:10.921Z,1.17
2023-01-28T09:17:37.303Z,1.20
2023-01-28T09:20:04.584Z,1.20
2023-01-28T09:22:32.774Z,1.25
2023-01-28T09:24:59.121Z,1.02
2023-01-28T09:27:25.651Z,1.00
2023-01-28T09:29:51.998Z,0.93
2023-01-28T09:32:18.466Z,1.13
2023-01-28T09:34:44.843Z,0.93
2023-01-28T09:37:11.679Z,1.10
2023-01-28T09:39:38.499Z,0.90
2023-01-28T09:42:42.382Z,0.83
2023-01-28T09:45:23.696Z,0.95
2023-01-28T09:47:55.931Z,1.08
2023-01-28T09:50:38.486Z,0.93
2023-01-28T09:53:12.447Z,0.90
2023-01-28T09:55:44.442Z,0.87
2023-01-28T09:58:12.937Z,0.75
2023-01-28T10:00:46.655Z,1.10
2023-01-28T10:03:34.049Z,0.80
2023-01-28T10:06:26.546Z,0.80
2023-01-28T10:09:05.070Z,1.97
2023-01-28T10:11:53.412Z,1.20
2023-01-28T10:14:39.205Z,0.82
2023-01-28T10:17:23.946Z,0.82
2023-01-28T10:19:56.888Z,0.70
2023-01-28T10:22:30.935Z,2.00
2023-01-28T10:25:03.657Z,1.80
2023-01-28T10:27:31.842Z,1.10
2023-01-28T10:30:00.758Z,1.40
2023-01-28T10:32:34.009Z,0.90
2023-01-28T10:35:02.890Z,1.00
2023-01-28T10:37:34.733Z,0.98
2023-01-28T10:40:03.047Z,0.80
2023-01-28T10:42:30.736Z,0.98
2023-01-28T10:45:25.473Z,1.17
2023-01-28T10:48:03.755Z,1.23
2023-01-28T10:50:31.541Z,1.30
2023-01-28T10:53:00.223Z,0.82
2023-01-28T10:55:32.918Z,1.00
2023-01-28T10:57:59.379Z,0.90
2023-01-28T11:00:30.834Z,0.93
2023-01-28T11:02:57.777Z,0.90
2023-01-28T11:05:29.158Z,0.88
2023-01-28T11:08:05.540Z,0.98
2023-01-28T11:10:37.617Z,1.10
2023-01-28T11:13:06.295Z,0.97
2023-01-28T11:15:33.439Z,0.93
2023-01-28T11:18:15.659Z,1.15
2023-01-28T11:20:49.212Z,1.60
2023-01-28T11:23:23.933Z,3.45
2023-01-28T11:26:00.802Z,3.67
2023-01-28T11:28:27.658Z,9.00
2023-01-28T11:30:57.691Z,8.52
2023-01-28T11:33:32.859Z,2.70
2023-01-28T11:36:13.847Z,1.40
2023-01-28T11:38:58.694Z,1.17
2023-01-28T11:41:33.350Z,1.30
2023-01-28T11:44:11.255Z,1.27
2023-01-28T11:46:56.397Z,0.93
2023-01-28T11:49:41.588Z,1.10
2023-01-28T11:52:24.766Z,1.00
2023-01-28T11:54:59.824Z,1.00
2023-01-28T11:57:30.161Z,1.02
2023-01-28T12:00:26.054Z,1.10
2023-01-28T12:03:25.058Z,1.25
2023-01-28T12:06:12.031Z,0.90
2023-01-28T12:08:45.039Z,0.80
2023-01-28T12:11:51.292Z,0.95
2023-01-28T12:14:24.204Z,4.45
2023-01-28T12:17:11.952Z,2.05
2023-01-28T12:19:53.693Z,1.63
2023-01-28T12:22:26.724Z,0.95
2023-01-28T12:25:07.133Z,1.10
2023-01-28T12:27:59.428Z,0.88
2023-01-28T12:30:37.764Z,1.30
2023-01-28T12:33:36.134Z,1.20
2023-01-28T12:36:40.332Z,1.95
2023-01-28T12:39:45.527Z,1.10
2023-01-28T12:42:36.099Z,0.80
2023-01-28T12:45:16.444Z,1.10
2023-01-28T12:48:01.738Z,1.30
2023-01-28T12:50:33.429Z,1.20
2023-01-28T12:53:09.667Z,1.35
2023-01-28T12:55:42.641Z,2.53
2023-01-28T12:58:19.827Z,1.73
2023-01-28T13:00:55.818Z,1.13
2023-01-28T13:03:34.893Z,1.10
2023-01-28T13:06:10.942Z,0.98
2023-01-28T13:08:37.325Z,0.90
2023-01-28T13:11:04.817Z,1.35
2023-01-28T13:13:37.267Z,0.97
2023-01-28T13:16:05.731Z,1.27
2023-01-28T13:18:42.345Z,1.02
2023-01-28T13:21:23.912Z,1.20
2023-01-28T13:24:03.163Z,1.13
2023-01-28T13:26:54.399Z,1.20
2023-01-28T13:29:29.954Z,1.15
2023-01-28T13:31:59.723Z,0.93
2023-01-28T13:34:33.001Z,1.10
2023-01-28T13:37:28.637Z,1.00
2023-01-28T13:40:04.198Z,1.13
2023-01-28T13:42:32.016Z,1.20
2023-01-28T13:45:18.583Z,1.15
2023-01-28T13:47:48.760Z,1.10
2023-01-28T13:50:20.472Z,1.05
2023-01-28T13:53:07.342Z,0.90
2023-01-28T13:55:44.742Z,1.00
2023-01-28T13:58:27.426Z,1.10
2023-01-28T14:01:02.856Z,1.20
2023-01-28T14:03:49.024Z,1.10
2023-01-28T14:06:43.006Z,1.00
2023-01-28T14:09:31.573Z,1.02
2023-01-28T14:12:09.857Z,1.13
2023-01-28T14:14:48.296Z,1.17
2023-01-28T14:17:18.105Z,1.33
2023-01-28T14:19:45.751Z,1.80
2023-01-28T14:22:20.346Z,1.90
2023-01-28T14:24:48.150Z,1.50
2023-01-28T14:27:17.460Z,1.80
2023-01-28T14:30:07.863Z,1.30
2023-01-28T14:32:35.738Z,1.50
2023-01-28T14:35:09.080Z,1.42
2023-01-28T14:37:35.883Z,1.48
2023-01-28T14:40:15.149Z,1.30
2023-01-28T14:42:45.034Z,1.35
2023-01-28T14:45:35.890Z,1.23
2023-01-28T14:48:26.067Z,1.13
2023-01-28T14:51:14.450Z,4.68
2023-01-28T14:54:16.917Z,1.70
2023-01-28T14:56:58.168Z,1.35
2023-01-28T14:59:41.884Z,1.20
2023-01-28T15:02:29.584Z,1.55
2023-01-28T15:05:08.749Z,1.45
2023-01-28T15:07:35.212Z,1.35
2023-01-28T15:10:14.418Z,2.00
2023-01-28T15:12:47.723Z,1.90
2023-01-28T15:15:40.165Z,1.40
2023-01-28T15:18:15.529Z,1.33
2023-01-28T15:20:51.532Z,1.45
2023-01-28T15:23:22.946Z,1.83
2023-01-28T15:25:49.379Z,1.97
2023-01-28T15:28:25.158Z,1.73
2023-01-28T15:30:51.548Z,1.60
2023-01-28T15:33:20.964Z,1.48
2023-01-28T15:35:48.820Z,1.90
2023-01-28T15:38:17.669Z,1.40
2023-01-28T15:40:47.438Z,1.27
2023-01-28T15:43:20.676Z,3.25
2023-01-28T15:45:49.499Z,1.27
2023-01-28T15:48:16.573Z,1.10
2023-01-28T15:50:44.947Z,1.20
2023-01-28T15:53:14.352Z,1.50
2023-01-28T15:55:44.844Z,1.95
2023-01-28T15:58:33.872Z,1.60
2023-01-28T16:01:12.719Z,1.40
2023-01-28T16:03:42.033Z,3.30
2023-01-28T16:06:18.290Z,4.60
2023-01-28T16:08:50.813Z,2.60
2023-01-28T16:11:25.940Z,2.00
2023-01-28T16:13:52.973Z,1.60
2023-01-28T16:16:34.628Z,1.63
2023-01-28T16:19:05.227Z,1.50
2023-01-28T16:21:37.784Z,1.30
2023-01-28T16:24:07.696Z,1.48
2023-01-28T16:26:35.948Z,1.48
2023-01-28T16:29:30.907Z,1.50
2023-01-28T16:31:59.782Z,1.60
2023-01-28T16:34:30.022Z,1.73
2023-01-28T16:36:58.974Z,1.83
2023-01-28T16:39:25.389Z,1.60
2023-01-28T16:41:51.846Z,1.77
2023-01-28T16:44:18.227Z,1.70
2023-01-28T16:46:44.753Z,1.90
2023-01-28T16:49:12.055Z,1.77
2023-01-28T16:51:42.488Z,1.70
2023-01-28T16:54:13.819Z,1.90
2023-01-28T16:56:47.489Z,1.65
2023-01-28T16:59:16.248Z,2.05
2023-01-28T17:01:44.264Z,2.28
2023-01-28T17:04:12.774Z,6.55
2023-01-28T17:06:42.786Z,5.73
2023-01-28T17:09:10.862Z,5.07
2023-01-28T17:11:37.268Z,5.40
2023-01-28T17:14:03.641Z,5.68
2023-01-28T17:16:30.109Z,6.40
2023-01-28T17:18:56.558Z,6.87
2023-01-28T17:21:23.021Z,6.47
2023-01-28T17:23:49.962Z,5.53
2023-01-28T17:26:16.987Z,4.47
2023-01-28T17:28:43.738Z,4.90
2023-01-28T17:31:15.083Z,4.70
2023-01-28T17:33:41.902Z,7.43
2023-01-28T17:36:09.258Z,5.47
2023-01-28T17:38:35.690Z,5.20
2023-01-28T17:41:04.106Z,5.25
2023-01-28T17:43:30.929Z,4.90
2023-01-28T17:45:57.490Z,7.40
2023-01-28T17:48:23.873Z,3.97
2023-01-28T17:50:50.245Z,3.45
2023-01-28T17:53:16.599Z,3.67
2023-01-28T17:55:42.952Z,2.90
2023-01-28T17:58:09.476Z,3.65
2023-01-28T18:00:35.864Z,3.92
2023-01-28T18:03:02.203Z,4.75
2023-01-28T18:05:28.612Z,4.00
2023-01-28T18:07:55.074Z,3.47
2023-01-28T18:10:21.463Z,4.63
2023-01-28T18:12:48.125Z,5.72
2023-01-28T18:15:14.858Z,4.70
2023-01-28T18:17:41.472Z,4.40
2023-01-28T18:20:08.694Z,2.73
2023-01-28T18:22:35.076Z,3.08
2023-01-28T18:25:01.460Z,3.58
2023-01-28T18:27:27.824Z,3.67
2023-01-28T18:29:54.249Z,3.10
2023-01-28T18:32:20.637Z,2.47
2023-01-28T18:34:46.983Z,3.45
2023-01-28T18:37:13.346Z,3.42
2023-01-28T18:39:39.819Z,3.10
2023-01-28T18:42:07.230Z,2.45
2023-01-28T18:44:33.649Z,3.17
2023-01-28T18:46:59.990Z,3.80
2023-01-28T18:49:26.360Z,2.58
2023-01-28T18:51:52.813Z,2.30
2023-01-28T18:54:20.328Z,2.30
2023-01-28T18:56:48.497Z,2.60
2023-01-28T18:59:15.238Z,2.60
2023-01-28T19:01:42.865Z,2.40
2023-01-28T19:04:09.974Z,2.83
2023-01-28T19:06:36.486Z,2.40
2023-01-28T19:09:08.462Z,3.20
2023-01-28T19:11:35.488Z,3.33
2023-01-28T19:14:02.229Z,2.80
2023-01-28T19:16:29.520Z,2.55
2023-01-28T19:18:58.894Z,2.40
2023-01-28T19:21:26.402Z,2.57
2023-01-28T19:23:58.036Z,3.00
2023-01-28T19:26:25.818Z,2.83
2023-01-28T19:28:53.101Z,2.75
2023-01-28T19:31:21.568Z,2.78
2023-01-28T19:33:49.035Z,2.70
2023-01-28T19:36:16.141Z,3.03
2023-01-28T19:38:42.669Z,3.22
2023-01-28T19:41:09.194Z,2.95
2023-01-28T19:43:35.762Z,2.53
2023-01-28T19:46:05.965Z,2.77
2023-01-28T19:48:33.439Z,2.50
2023-01-28T19:51:07.296Z,3.45
2023-01-28T19:53:35.162Z,3.08
2023-01-28T19:56:03.430Z,3.55
2023-01-28T19:58:33.527Z,4.27
2023-01-28T20:01:10.361Z,4.03
2023-01-28T20:03:37.371Z,3.42
2023-01-28T20:06:05.921Z,3.25
2023-01-28T20:08:32.953Z,3.33
2023-01-28T20:11:14.030Z,3.13
2023-01-28T20:13:42.713Z,2.90
2023-01-28T20:16:14.418Z,3.20
2023-01-28T20:18:40.763Z,3.00
2023-01-28T20:21:07.429Z,3.08
2023-01-28T20:23:33.998Z,3.37
2023-01-28T20:26:03.289Z,3.00
2023-01-28T20:28:29.747Z,3.20
2023-01-28T20:30:56.586Z,3.05
2023-01-28T20:33:23.808Z,3.03
2023-01-28T20:35:50.196Z,5.37
2023-01-28T20:38:16.666Z,5.07
2023-01-28T20:40:43.819Z,3.70
2023-01-28T20:43:10.172Z,4.28
2023-01-28T20:45:36.707Z,3.97
2023-01-28T20:48:03.115Z,4.10
2023-01-28T20:50:29.554Z,3.50
2023-01-28T20:52:55.917Z,3.63
2023-01-28T20:55:22.366Z,3.45
2023-01-28T20:57:48.836Z,4.07
2023-01-28T21:00:15.865Z,4.30
2023-01-28T21:02:44.269Z,3.95
2023-01-28T21:05:10.726Z,4.40
2023-01-28T21:07:37.389Z,4.07
2023-01-28T21:10:04.033Z,4.03
2023-01-28T21:12:30.531Z,3.40
2023-01-28T21:14:57.621Z,3.40
2023-01-28T21:17:25.389Z,3.65
2023-01-28T21:19:51.774Z,3.28
2023-01-28T21:22:19.999Z,3.92
2023-01-28T21:24:48.790Z,4.63
2023-01-28T21:27:15.175Z,4.22
2023-01-28T21:29:41.988Z,3.78
2023-01-28T21:32:08.507Z,4.13
2023-01-28T21:34:35.000Z,4.32
2023-01-28T21:37:01.406Z,4.00
2023-01-28T21:39:27.769Z,4.55
2023-01-28T21:41:54.143Z,3.97
2023-01-28T21:44:20.507Z,4.13
2023-01-28T21:46:46.980Z,3.95
2023-01-28T21:49:13.363Z,4.17
2023-01-28T21:51:39.909Z,4.00
2023-01-28T21:54:15.170Z,3.92
2023-01-28T21:56:43.726Z,3.50
2023-01-28T21:59:29.160Z,4.10
2023-01-28T22:02:01.621Z,4.20
2023-01-28T22:04:32.437Z,4.15
2023-01-28T22:07:00.007Z,4.53
2023-01-28T22:09:27.672Z,4.95
2023-01-28T22:11:54.384Z,4.68
2023-01-28T22:14:21.600Z,4.90
2023-01-28T22:16:48.040Z,4.18
2023-01-28T22:19:15.046Z,3.58
2023-01-28T22:21:43.243Z,4.18
2023-01-28T22:24:11.790Z,4.10
2023-01-28T22:26:38.980Z,3.70
2023-01-28T22:29:06.167Z,4.05
2023-01-28T22:31:32.672Z,4.03
2023-01-28T22:33:59.309Z,4.18
2023-01-28T22:36:25.755Z,4.40
2023-01-28T22:38:52.199Z,4.20
2023-01-28T22:41:22.659Z,3.80
2023-01-28T22:43:50.215Z,3.80
2023-01-28T22:46:18.497Z,3.47
2023-01-28T22:48:45.306Z,4.32
2023-01-28T22:51:17.521Z,4.00
2023-01-28T22:53:45.208Z,4.32
2023-01-28T22:56:12.138Z,4.15
2023-01-28T22:58:39.278Z,4.25
2023-01-28T23:01:06.084Z,4.45
2023-01-28T23:03:33.092Z,3.97
2023-01-28T23:06:01.168Z,3.75
2023-01-28T23:08:28.341Z,4.43
2023-01-28T23:10:57.313Z,3.53
2023-01-28T23:13:24.917Z,3.97
2023-01-28T23:16:10.887Z,4.30
2023-01-28T23:18:57.152Z,3.85
2023-01-28T23:21:47.171Z,4.25
2023-01-28T23:24:20.701Z,3.95
2023-01-28T23:26:52.713Z,3.78
2023-01-28T23:29:23.805Z,3.80
2023-01-28T23:31:53.940Z,4.13
2023-01-28T23:34:21.393Z,3.72
2023-01-28T23:36:48.893Z,3.92
2023-01-28T23:39:15.271Z,3.88
2023-01-28T23:41:41.633Z,3.87
2023-01-28T23:44:07.975Z,4.38
2023-01-28T23:46:39.736Z,4.70
2023-01-28T23:49:08.716Z,4.07
2023-01-28T23:51:35.289Z,4.00
2023-01-28T23:54:01.649Z,4.57
2023-01-28T23:56:28.008Z,4.20
2023-01-28T23:58:56.381Z,4.57
